sensor_id;sensor_type;location;lat;lon;timestamp;temperature;humidity
3330;DHT22;1677;49.576;10.990;2023-01-25T00:01:46;2.40;99.90
3330;DHT22;1677;49.576;10.990;2023-01-25T00:04:11;2.60;99.90
3330;DHT22;1677;49.576;10.990;2023-01-25T00:06:37;2.50;99.90
3330;DHT22;1677;49.576;10.990;2023-01-25T00:09:03;2.70;99.90
3330;DHT22;1677;49.576;10.990;2023-01-25T00:11:29;2.50;99.90
3330;DHT22;1677;49.576;10.990;2023-01-25T00:13:55;2.50;99.90
3330;DHT22;1677;49.576;10.990;2023-01-25T00:16:21;2.40;99.90
3330;DHT22;1677;49.576;10.990;2023-01-25T00:18:48;2.60;99.90
3330;DHT22;1677;49.576;10.990;2023-01-25T00:21:22;2.50;99.90
3330;DHT22;1677;49.576;10.990;2023-01-25T00:23:48;2.30;99.90
3330;DHT22;1677;49.576;10.990;2023-01-25T00:26:14;2.30;99.90
3330;DHT22;1677;49.576;10.990;2023-01-25T00:28:40;2.60;99.90
3330;DHT22;1677;49.576;10.990;2023-01-25T00:31:08;2.50;99.90
3330;DHT22;1677;49.576;10.990;2023-01-25T00:38:53;2.80;99.90
3330;DHT22;1677;49.576;10.990;2023-01-25T00:41:19;2.60;99.90
3330;DHT22;1677;49.576;10.990;2023-01-25T00:43:45;2.60;99.90
3330;DHT22;1677;49.576;10.990;2023-01-25T00:46:14;2.30;99.90
3330;DHT22;1677;49.576;10.990;2023-01-25T00:48:40;2.50;99.90
3330;DHT22;1677;49.576;10.990;2023-01-25T00:51:06;2.50;99.90
3330;DHT22;1677;49.576;10.990;2023-01-25T00:53:32;2.50;99.90
3330;DHT22;1677;49.576;10.990;2023-01-25T00:55:58;2.50;99.90
3330;DHT22;1677;49.576;10.990;2023-01-25T00:58:23;2.60;99.90
3330;DHT22;1677;49.576;10.990;2023-01-25T01:00:50;2.30;99.90
3330;DHT22;1677;49.576;10.990;2023-01-25T01:03:16;2.30;99.90
3330;DHT22;1677;49.576;10.990;2023-01-25T01:05:41;2.30;99.90
3330;DHT22;1677;49.576;10.990;2023-01-25T01:08:07;2.10;99.90
3330;DHT22;1677;49.576;10.990;2023-01-25T01:10:32;2.20;99.90
3330;DHT22;1677;49.576;10.990;2023-01-25T01:12:58;2.30;99.90
3330;DHT22;1677;49.576;10.990;2023-01-25T01:15:23;2.50;99.90
3330;DHT22;1677;49.576;10.990;2023-01-25T01:17:49;2.60;99.90
3330;DHT22;1677;49.576;10.990;2023-01-25T01:20:14;2.30;99.90
3330;DHT22;1677;49.576;10.990;2023-01-25T01:22:40;2.10;99.90
3330;DHT22;1677;49.576;10.990;2023-01-25T01:25:06;2.40;99.90
3330;DHT22;1677;49.576;10.990;2023-01-25T01:27:32;2.30;99.90
3330;DHT22;1677;49.576;10.990;2023-01-25T01:29:57;2.40;99.90
3330;DHT22;1677;49.576;10.990;2023-01-25T01:32:23;2.20;99.90
3330;DHT22;1677;49.576;10.990;2023-01-25T01:34:49;2.30;99.90
3330;DHT22;1677;49.576;10.990;2023-01-25T01:37:14;2.40;99.90
3330;DHT22;1677;49.576;10.990;2023-01-25T01:39:40;2.50;99.90
3330;DHT22;1677;49.576;10.990;2023-01-25T01:42:05;2.60;99.90
3330;DHT22;1677;49.576;10.990;2023-01-25T01:44:51;2.30;99.90
3330;DHT22;1677;49.576;10.990;2023-01-25T01:50:00;2.30;99.90
3330;DHT22;1677;49.576;10.990;2023-01-25T01:52:31;2.20;99.90
3330;DHT22;1677;49.576;10.990;2023-01-25T01:55:02;2.50;99.90
3330;DHT22;1677;49.576;10.990;2023-01-25T01:57:43;2.10;99.90
3330;DHT22;1677;49.576;10.990;2023-01-25T02:00:15;2.20;99.90
3330;DHT22;1677;49.576;10.990;2023-01-25T02:02:42;2.10;99.90
3330;DHT22;1677;49.576;10.990;2023-01-25T02:05:11;2.20;99.90
3330;DHT22;1677;49.576;10.990;2023-01-25T02:07:41;2.00;99.90
3330;DHT22;1677;49.576;10.990;2023-01-25T02:10:10;1.90;99.90
3330;DHT22;1677;49.576;10.990;2023-01-25T02:12:37;2.00;99.90
3330;DHT22;1677;49.576;10.990;2023-01-25T02:15:03;2.00;99.90
3330;DHT22;1677;49.576;10.990;2023-01-25T02:17:31;2.10;99.90
3330;DHT22;1677;49.576;10.990;2023-01-25T02:20:18;2.30;99.90
3330;DHT22;1677;49.576;10.990;2023-01-25T02:22:55;1.80;99.90
3330;DHT22;1677;49.576;10.990;2023-01-25T02:25:23;1.90;99.90
3330;DHT22;1677;49.576;10.990;2023-01-25T02:28:14;2.20;99.90
3330;DHT22;1677;49.576;10.990;2023-01-25T02:30:42;2.30;99.90
3330;DHT22;1677;49.576;10.990;2023-01-25T02:33:07;2.40;99.90
3330;DHT22;1677;49.576;10.990;2023-01-25T02:35:46;2.50;99.90
3330;DHT22;1677;49.576;10.990;2023-01-25T02:38:15;2.50;99.90
3330;DHT22;1677;49.576;10.990;2023-01-25T02:40:48;2.60;99.90
3330;DHT22;1677;49.576;10.990;2023-01-25T02:43:15;2.60;99.90
3330;DHT22;1677;49.576;10.990;2023-01-25T02:45:44;2.40;99.90
3330;DHT22;1677;49.576;10.990;2023-01-25T02:48:10;2.40;99.90
3330;DHT22;1677;49.576;10.990;2023-01-25T02:50:35;2.40;99.90
3330;DHT22;1677;49.576;10.990;2023-01-25T02:53:01;2.40;99.90
3330;DHT22;1677;49.576;10.990;2023-01-25T02:55:27;2.40;99.90
3330;DHT22;1677;49.576;10.990;2023-01-25T02:57:52;2.30;99.90
3330;DHT22;1677;49.576;10.990;2023-01-25T03:00:18;2.20;99.90
3330;DHT22;1677;49.576;10.990;2023-01-25T03:02:44;2.30;99.90
3330;DHT22;1677;49.576;10.990;2023-01-25T03:05:09;2.20;99.90
3330;DHT22;1677;49.576;10.990;2023-01-25T03:07:35;2.10;99.90
3330;DHT22;1677;49.576;10.990;2023-01-25T03:10:00;2.00;99.90
3330;DHT22;1677;49.576;10.990;2023-01-25T03:12:26;2.00;99.90
3330;DHT22;1677;49.576;10.990;2023-01-25T03:14:51;1.90;99.90
3330;DHT22;1677;49.576;10.990;2023-01-25T03:17:17;1.80;99.90
3330;DHT22;1677;49.576;10.990;2023-01-25T03:19:42;1.90;99.90
3330;DHT22;1677;49.576;10.990;2023-01-25T03:22:08;1.90;99.90
3330;DHT22;1677;49.576;10.990;2023-01-25T03:24:35;1.90;99.90
3330;DHT22;1677;49.576;10.990;2023-01-25T03:27:00;2.00;99.90
3330;DHT22;1677;49.576;10.990;2023-01-25T03:29:36;2.00;99.90
3330;DHT22;1677;49.576;10.990;2023-01-25T03:32:01;2.20;99.90
3330;DHT22;1677;49.576;10.990;2023-01-25T03:34:27;2.10;99.90
3330;DHT22;1677;49.576;10.990;2023-01-25T03:36:53;1.80;99.90
3330;DHT22;1677;49.576;10.990;2023-01-25T03:39:18;1.80;99.90
3330;DHT22;1677;49.576;10.990;2023-01-25T03:41:44;1.80;99.90
3330;DHT22;1677;49.576;10.990;2023-01-25T03:44:09;1.80;99.90
3330;DHT22;1677;49.576;10.990;2023-01-25T03:46:39;1.90;99.90
3330;DHT22;1677;49.576;10.990;2023-01-25T03:49:05;1.70;99.90
3330;DHT22;1677;49.576;10.990;2023-01-25T03:51:32;1.80;99.90
3330;DHT22;1677;49.576;10.990;2023-01-25T03:53:58;1.70;99.90
3330;DHT22;1677;49.576;10.990;2023-01-25T03:56:24;1.70;99.90
3330;DHT22;1677;49.576;10.990;2023-01-25T03:58:49;1.80;99.90
3330;DHT22;1677;49.576;10.990;2023-01-25T04:01:15;1.90;99.90
3330;DHT22;1677;49.576;10.990;2023-01-25T04:03:40;2.00;99.90
3330;DHT22;1677;49.576;10.990;2023-01-25T04:06:06;1.80;99.90
3330;DHT22;1677;49.576;10.990;2023-01-25T04:08:32;1.70;99.90
3330;DHT22;1677;49.576;10.990;2023-01-25T04:11:04;1.70;99.90
3330;DHT22;1677;49.576;10.990;2023-01-25T04:13:30;1.60;99.90
3330;DHT22;1677;49.576;10.990;2023-01-25T04:15:59;1.90;99.90
3330;DHT22;1677;49.576;10.990;2023-01-25T04:18:25;1.80;99.90
3330;DHT22;1677;49.576;10.990;2023-01-25T04:20:54;1.70;99.90
3330;DHT22;1677;49.576;10.990;2023-01-25T04:23:20;1.70;99.90
3330;DHT22;1677;49.576;10.990;2023-01-25T04:25:53;2.10;99.90
3330;DHT22;1677;49.576;10.990;2023-01-25T04:28:19;2.10;99.90
3330;DHT22;1677;49.576;10.990;2023-01-25T04:30:45;2.10;99.90
3330;DHT22;1677;49.576;10.990;2023-01-25T04:33:10;2.20;99.90
3330;DHT22;1677;49.576;10.990;2023-01-25T04:35:36;2.20;99.90
3330;DHT22;1677;49.576;10.990;2023-01-25T04:38:02;2.20;99.90
3330;DHT22;1677;49.576;10.990;2023-01-25T04:40:28;2.00;99.90
3330;DHT22;1677;49.576;10.990;2023-01-25T04:42:54;1.80;99.90
3330;DHT22;1677;49.576;10.990;2023-01-25T04:45:20;1.70;99.90
3330;DHT22;1677;49.576;10.990;2023-01-25T04:47:45;1.70;99.90
3330;DHT22;1677;49.576;10.990;2023-01-25T04:50:11;1.80;99.90
3330;DHT22;1677;49.576;10.990;2023-01-25T04:52:37;2.20;99.90
3330;DHT22;1677;49.576;10.990;2023-01-25T04:55:02;2.30;99.90
3330;DHT22;1677;49.576;10.990;2023-01-25T04:57:28;2.10;99.90
3330;DHT22;1677;49.576;10.990;2023-01-25T04:59:53;2.10;99.90
3330;DHT22;1677;49.576;10.990;2023-01-25T05:02:19;2.10;99.90
3330;DHT22;1677;49.576;10.990;2023-01-25T05:04:45;2.00;99.90
3330;DHT22;1677;49.576;10.990;2023-01-25T05:07:10;2.00;99.90
3330;DHT22;1677;49.576;10.990;2023-01-25T05:09:36;2.10;99.90
3330;DHT22;1677;49.576;10.990;2023-01-25T05:12:01;2.00;99.90
3330;DHT22;1677;49.576;10.990;2023-01-25T05:14:27;2.00;99.90
3330;DHT22;1677;49.576;10.990;2023-01-25T05:16:53;2.00;99.90
3330;DHT22;1677;49.576;10.990;2023-01-25T05:19:18;2.10;99.90
3330;DHT22;1677;49.576;10.990;2023-01-25T05:21:44;2.00;99.90
3330;DHT22;1677;49.576;10.990;2023-01-25T05:24:29;1.90;99.90
3330;DHT22;1677;49.576;10.990;2023-01-25T05:26:56;2.10;99.90
3330;DHT22;1677;49.576;10.990;2023-01-25T05:29:35;2.10;99.90
3330;DHT22;1677;49.576;10.990;2023-01-25T05:32:03;2.20;99.90
3330;DHT22;1677;49.576;10.990;2023-01-25T05:34:28;1.90;99.90
3330;DHT22;1677;49.576;10.990;2023-01-25T05:36:54;1.90;99.90
3330;DHT22;1677;49.576;10.990;2023-01-25T05:39:19;2.00;99.90
3330;DHT22;1677;49.576;10.990;2023-01-25T05:41:45;2.00;99.90
3330;DHT22;1677;49.576;10.990;2023-01-25T05:44:11;2.10;99.90
3330;DHT22;1677;49.576;10.990;2023-01-25T05:46:36;2.00;99.90
3330;DHT22;1677;49.576;10.990;2023-01-25T05:49:02;1.80;99.90
3330;DHT22;1677;49.576;10.990;2023-01-25T05:51:27;1.90;99.90
3330;DHT22;1677;49.576;10.990;2023-01-25T05:53:54;2.00;99.90
3330;DHT22;1677;49.576;10.990;2023-01-25T05:56:20;1.80;99.90
3330;DHT22;1677;49.576;10.990;2023-01-25T05:58:45;2.00;99.90
3330;DHT22;1677;49.576;10.990;2023-01-25T06:01:11;2.10;99.90
3330;DHT22;1677;49.576;10.990;2023-01-25T06:03:37;2.00;99.90
3330;DHT22;1677;49.576;10.990;2023-01-25T06:06:02;2.10;99.90
3330;DHT22;1677;49.576;10.990;2023-01-25T06:08:29;2.10;99.90
3330;DHT22;1677;49.576;10.990;2023-01-25T06:10:55;1.90;99.90
3330;DHT22;1677;49.576;10.990;2023-01-25T06:13:21;1.90;99.90
3330;DHT22;1677;49.576;10.990;2023-01-25T06:15:56;1.80;99.90
3330;DHT22;1677;49.576;10.990;2023-01-25T06:18:23;2.00;99.90
3330;DHT22;1677;49.576;10.990;2023-01-25T06:20:49;2.10;99.90
3330;DHT22;1677;49.576;10.990;2023-01-25T06:23:15;1.80;99.90
3330;DHT22;1677;49.576;10.990;2023-01-25T06:25:41;1.70;99.90
3330;DHT22;1677;49.576;10.990;2023-01-25T06:28:07;1.60;99.90
3330;DHT22;1677;49.576;10.990;2023-01-25T06:30:33;1.60;99.90
3330;DHT22;1677;49.576;10.990;2023-01-25T06:32:59;1.90;99.90
3330;DHT22;1677;49.576;10.990;2023-01-25T06:35:24;2.10;99.90
3330;DHT22;1677;49.576;10.990;2023-01-25T06:37:50;2.10;99.90
3330;DHT22;1677;49.576;10.990;2023-01-25T06:40:16;2.00;99.90
3330;DHT22;1677;49.576;10.990;2023-01-25T06:42:41;2.20;99.90
3330;DHT22;1677;49.576;10.990;2023-01-25T06:45:08;2.10;99.90
3330;DHT22;1677;49.576;10.990;2023-01-25T06:47:34;2.30;99.90
3330;DHT22;1677;49.576;10.990;2023-01-25T06:49:59;2.00;99.90
3330;DHT22;1677;49.576;10.990;2023-01-25T06:52:25;2.10;99.90
3330;DHT22;1677;49.576;10.990;2023-01-25T06:54:50;2.20;99.90
3330;DHT22;1677;49.576;10.990;2023-01-25T06:57:16;2.00;99.90
3330;DHT22;1677;49.576;10.990;2023-01-25T06:59:41;2.00;99.90
3330;DHT22;1677;49.576;10.990;2023-01-25T07:02:13;1.90;99.90
3330;DHT22;1677;49.576;10.990;2023-01-25T07:04:39;2.00;99.90
3330;DHT22;1677;49.576;10.990;2023-01-25T07:07:07;2.10;99.90
3330;DHT22;1677;49.576;10.990;2023-01-25T07:09:33;1.80;99.90
3330;DHT22;1677;49.576;10.990;2023-01-25T07:11:59;1.90;99.90
3330;DHT22;1677;49.576;10.990;2023-01-25T07:14:26;2.10;99.90
3330;DHT22;1677;49.576;10.990;2023-01-25T07:16:52;2.20;99.90
3330;DHT22;1677;49.576;10.990;2023-01-25T07:19:18;1.90;99.90
3330;DHT22;1677;49.576;10.990;2023-01-25T07:21:43;2.00;99.90
3330;DHT22;1677;49.576;10.990;2023-01-25T07:24:15;2.00;99.90
3330;DHT22;1677;49.576;10.990;2023-01-25T07:26:41;2.00;99.90
3330;DHT22;1677;49.576;10.990;2023-01-25T07:29:10;2.00;99.90
3330;DHT22;1677;49.576;10.990;2023-01-25T07:31:36;1.60;99.90
3330;DHT22;1677;49.576;10.990;2023-01-25T07:34:02;1.40;99.90
3330;DHT22;1677;49.576;10.990;2023-01-25T07:36:27;1.30;99.90
3330;DHT22;1677;49.576;10.990;2023-01-25T07:38:54;1.30;99.90
3330;DHT22;1677;49.576;10.990;2023-01-25T07:41:21;1.60;99.90
3330;DHT22;1677;49.576;10.990;2023-01-25T07:43:46;1.70;99.90
3330;DHT22;1677;49.576;10.990;2023-01-25T07:46:12;1.80;99.90
3330;DHT22;1677;49.576;10.990;2023-01-25T07:48:40;1.70;99.90
3330;DHT22;1677;49.576;10.990;2023-01-25T07:51:09;1.60;99.90
3330;DHT22;1677;49.576;10.990;2023-01-25T07:53:57;1.50;99.90
3330;DHT22;1677;49.576;10.990;2023-01-25T07:56:26;1.70;99.90
3330;DHT22;1677;49.576;10.990;2023-01-25T07:58:53;2.00;99.90
3330;DHT22;1677;49.576;10.990;2023-01-25T08:01:20;1.70;99.90
3330;DHT22;1677;49.576;10.990;2023-01-25T08:03:46;1.60;99.90
3330;DHT22;1677;49.576;10.990;2023-01-25T08:06:13;1.50;99.90
3330;DHT22;1677;49.576;10.990;2023-01-25T08:08:58;1.50;99.90
3330;DHT22;1677;49.576;10.990;2023-01-25T08:11:26;1.80;99.90
3330;DHT22;1677;49.576;10.990;2023-01-25T08:13:52;1.70;99.90
3330;DHT22;1677;49.576;10.990;2023-01-25T08:16:19;1.70;99.90
3330;DHT22;1677;49.576;10.990;2023-01-25T08:18:50;1.80;99.90
3330;DHT22;1677;49.576;10.990;2023-01-25T08:21:16;2.10;99.90
3330;DHT22;1677;49.576;10.990;2023-01-25T08:23:42;2.20;99.90
3330;DHT22;1677;49.576;10.990;2023-01-25T08:26:09;2.20;99.90
3330;DHT22;1677;49.576;10.990;2023-01-25T08:28:35;2.00;99.90
3330;DHT22;1677;49.576;10.990;2023-01-25T08:31:10;2.10;99.90
3330;DHT22;1677;49.576;10.990;2023-01-25T08:33:37;1.80;99.90
3330;DHT22;1677;49.576;10.990;2023-01-25T08:36:03;1.90;99.90
3330;DHT22;1677;49.576;10.990;2023-01-25T08:38:29;1.80;99.90
3330;DHT22;1677;49.576;10.990;2023-01-25T08:40:55;1.80;99.90
3330;DHT22;1677;49.576;10.990;2023-01-25T08:43:28;1.70;99.90
3330;DHT22;1677;49.576;10.990;2023-01-25T08:45:56;1.60;99.90
3330;DHT22;1677;49.576;10.990;2023-01-25T08:48:22;1.50;99.90
3330;DHT22;1677;49.576;10.990;2023-01-25T08:50:48;1.40;99.90
3330;DHT22;1677;49.576;10.990;2023-01-25T08:53:14;1.40;99.90
3330;DHT22;1677;49.576;10.990;2023-01-25T08:55:40;1.50;99.90
3330;DHT22;1677;49.576;10.990;2023-01-25T08:58:09;1.60;99.90
3330;DHT22;1677;49.576;10.990;2023-01-25T09:00:38;1.90;99.90
3330;DHT22;1677;49.576;10.990;2023-01-25T09:03:03;1.90;99.90
3330;DHT22;1677;49.576;10.990;2023-01-25T09:05:29;1.80;99.90
3330;DHT22;1677;49.576;10.990;2023-01-25T09:07:54;1.90;99.90
3330;DHT22;1677;49.576;10.990;2023-01-25T09:10:20;2.00;99.90
3330;DHT22;1677;49.576;10.990;2023-01-25T09:12:45;1.80;99.90
3330;DHT22;1677;49.576;10.990;2023-01-25T09:15:11;1.70;99.90
3330;DHT22;1677;49.576;10.990;2023-01-25T09:17:37;1.80;99.90
3330;DHT22;1677;49.576;10.990;2023-01-25T09:20:05;2.00;99.90
3330;DHT22;1677;49.576;10.990;2023-01-25T09:22:31;2.10;99.90
3330;DHT22;1677;49.576;10.990;2023-01-25T09:24:57;1.90;99.90
3330;DHT22;1677;49.576;10.990;2023-01-25T09:27:22;2.00;99.90
3330;DHT22;1677;49.576;10.990;2023-01-25T09:29:48;1.90;99.90
3330;DHT22;1677;49.576;10.990;2023-01-25T09:32:14;1.80;99.90
3330;DHT22;1677;49.576;10.990;2023-01-25T09:34:39;1.90;99.90
3330;DHT22;1677;49.576;10.990;2023-01-25T09:37:05;2.20;99.90
3330;DHT22;1677;49.576;10.990;2023-01-25T09:39:31;2.20;99.90
3330;DHT22;1677;49.576;10.990;2023-01-25T09:45:05;2.00;99.90
3330;DHT22;1677;49.576;10.990;2023-01-25T09:53:19;1.80;99.90
3330;DHT22;1677;49.576;10.990;2023-01-25T09:55:54;1.60;99.90
3330;DHT22;1677;49.576;10.990;2023-01-25T09:58:46;1.60;99.90
3330;DHT22;1677;49.576;10.990;2023-01-25T10:01:38;1.60;99.90
3330;DHT22;1677;49.576;10.990;2023-01-25T10:04:27;1.50;99.90
3330;DHT22;1677;49.576;10.990;2023-01-25T10:07:22;1.60;99.90
3330;DHT22;1677;49.576;10.990;2023-01-25T10:12:24;2.10;99.90
3330;DHT22;1677;49.576;10.990;2023-01-25T10:14:51;1.90;99.90
3330;DHT22;1677;49.576;10.990;2023-01-25T10:17:31;1.70;99.90
3330;DHT22;1677;49.576;10.990;2023-01-25T10:22:37;1.80;99.90
3330;DHT22;1677;49.576;10.990;2023-01-25T10:25:18;1.90;99.90
3330;DHT22;1677;49.576;10.990;2023-01-25T10:33:20;2.20;99.90
3330;DHT22;1677;49.576;10.990;2023-01-25T10:35:47;2.10;99.90
3330;DHT22;1677;49.576;10.990;2023-01-25T10:40:59;2.10;99.90
3330;DHT22;1677;49.576;10.990;2023-01-25T10:43:26;2.30;99.90
3330;DHT22;1677;49.576;10.990;2023-01-25T10:45:52;2.40;99.90
3330;DHT22;1677;49.576;10.990;2023-01-25T10:48:23;2.20;99.90
3330;DHT22;1677;49.576;10.990;2023-01-25T10:50:55;2.10;99.90
3330;DHT22;1677;49.576;10.990;2023-01-25T10:53:31;2.20;99.90
3330;DHT22;1677;49.576;10.990;2023-01-25T10:58:33;2.40;99.90
3330;DHT22;1677;49.576;10.990;2023-01-25T11:00:59;2.20;99.90
3330;DHT22;1677;49.576;10.990;2023-01-25T11:03:37;2.00;99.90
3330;DHT22;1677;49.576;10.990;2023-01-25T11:06:04;1.60;99.90
3330;DHT22;1677;49.576;10.990;2023-01-25T11:08:37;1.40;99.90
3330;DHT22;1677;49.576;10.990;2023-01-25T11:11:33;1.50;99.90
3330;DHT22;1677;49.576;10.990;2023-01-25T11:13:59;1.50;99.90
3330;DHT22;1677;49.576;10.990;2023-01-25T11:18:55;1.40;99.90
3330;DHT22;1677;49.576;10.990;2023-01-25T11:21:31;1.70;99.90
3330;DHT22;1677;49.576;10.990;2023-01-25T11:26:36;2.00;99.90
3330;DHT22;1677;49.576;10.990;2023-01-25T11:29:21;2.00;99.90
3330;DHT22;1677;49.576;10.990;2023-01-25T11:31:48;1.90;99.90
3330;DHT22;1677;49.576;10.990;2023-01-25T11:34:19;2.00;99.90
3330;DHT22;1677;49.576;10.990;2023-01-25T11:39:37;2.20;99.90
3330;DHT22;1677;49.576;10.990;2023-01-25T11:45:12;2.10;99.90
3330;DHT22;1677;49.576;10.990;2023-01-25T11:53:24;2.10;99.90
3330;DHT22;1677;49.576;10.990;2023-01-25T12:04:37;1.90;99.90
3330;DHT22;1677;49.576;10.990;2023-01-25T12:07:12;1.90;99.90
3330;DHT22;1677;49.576;10.990;2023-01-25T12:09:57;2.10;99.90
3330;DHT22;1677;49.576;10.990;2023-01-25T12:12:43;2.00;99.90
3330;DHT22;1677;49.576;10.990;2023-01-25T12:20:27;2.60;99.90
3330;DHT22;1677;49.576;10.990;2023-01-25T12:26:21;2.10;99.90
3330;DHT22;1677;49.576;10.990;2023-01-25T12:29:02;2.20;99.90
3330;DHT22;1677;49.576;10.990;2023-01-25T12:31:44;2.00;99.90
3330;DHT22;1677;49.576;10.990;2023-01-25T12:34:22;2.00;99.90
3330;DHT22;1677;49.576;10.990;2023-01-25T12:36:49;1.70;99.90
3330;DHT22;1677;49.576;10.990;2023-01-25T12:39:27;1.70;99.90
3330;DHT22;1677;49.576;10.990;2023-01-25T12:49:33;1.60;99.90
3330;DHT22;1677;49.576;10.990;2023-01-25T12:52:05;1.50;99.90
3330;DHT22;1677;49.576;10.990;2023-01-25T12:54:34;1.90;99.90
3330;DHT22;1677;49.576;10.990;2023-01-25T13:00:05;2.30;99.90
3330;DHT22;1677;49.576;10.990;2023-01-25T13:03:49;2.30;99.90
3330;DHT22;1677;49.576;10.990;2023-01-25T13:11:34;2.50;99.90
3330;DHT22;1677;49.576;10.990;2023-01-25T13:16:54;2.30;99.90
3330;DHT22;1677;49.576;10.990;2023-01-25T13:19:22;2.00;99.90
3330;DHT22;1677;49.576;10.990;2023-01-25T13:22:03;2.40;99.90
3330;DHT22;1677;49.576;10.990;2023-01-25T13:24:31;2.50;99.90
3330;DHT22;1677;49.576;10.990;2023-01-25T13:27:00;2.30;99.90
3330;DHT22;1677;49.576;10.990;2023-01-25T13:32:09;2.40;99.90
3330;DHT22;1677;49.576;10.990;2023-01-25T13:37:27;2.30;99.90
3330;DHT22;1677;49.576;10.990;2023-01-25T13:40:02;2.10;99.90
3330;DHT22;1677;49.576;10.990;2023-01-25T13:42:30;2.30;99.90
3330;DHT22;1677;49.576;10.990;2023-01-25T13:45:16;2.40;99.90
3330;DHT22;1677;49.576;10.990;2023-01-25T13:48:04;2.20;99.90
3330;DHT22;1677;49.576;10.990;2023-01-25T13:50:38;1.90;99.90
3330;DHT22;1677;49.576;10.990;2023-01-25T13:55:45;2.10;99.90
3330;DHT22;1677;49.576;10.990;2023-01-25T14:00:58;2.50;99.90
3330;DHT22;1677;49.576;10.990;2023-01-25T14:03:29;2.50;99.90
3330;DHT22;1677;49.576;10.990;2023-01-25T14:05:57;2.50;99.90
3330;DHT22;1677;49.576;10.990;2023-01-25T14:08:24;2.40;99.90
3330;DHT22;1677;49.576;10.990;2023-01-25T14:10:50;2.30;99.90
3330;DHT22;1677;49.576;10.990;2023-01-25T14:13:17;2.30;99.90
3330;DHT22;1677;49.576;10.990;2023-01-25T14:15:57;2.00;99.90
3330;DHT22;1677;49.576;10.990;2023-01-25T14:18:32;1.70;99.90
3330;DHT22;1677;49.576;10.990;2023-01-25T14:21:24;1.50;99.90
3330;DHT22;1677;49.576;10.990;2023-01-25T14:23:49;1.30;99.90
3330;DHT22;1677;49.576;10.990;2023-01-25T14:26:26;1.20;99.90
3330;DHT22;1677;49.576;10.990;2023-01-25T14:28:55;1.10;99.90
3330;DHT22;1677;49.576;10.990;2023-01-25T14:31:30;1.10;99.90
3330;DHT22;1677;49.576;10.990;2023-01-25T14:33:57;1.20;99.90
3330;DHT22;1677;49.576;10.990;2023-01-25T14:36:26;1.70;99.90
3330;DHT22;1677;49.576;10.990;2023-01-25T14:38:53;1.80;99.90
3330;DHT22;1677;49.576;10.990;2023-01-25T14:41:27;1.90;99.90
3330;DHT22;1677;49.576;10.990;2023-01-25T14:43:56;2.10;99.90
3330;DHT22;1677;49.576;10.990;2023-01-25T14:51:48;1.60;99.90
3330;DHT22;1677;49.576;10.990;2023-01-25T14:54:18;1.50;99.90
3330;DHT22;1677;49.576;10.990;2023-01-25T14:56:50;1.60;99.90
3330;DHT22;1677;49.576;10.990;2023-01-25T14:59:25;1.80;99.90
3330;DHT22;1677;49.576;10.990;2023-01-25T15:01:53;1.80;99.90
3330;DHT22;1677;49.576;10.990;2023-01-25T15:04:20;1.70;99.90
3330;DHT22;1677;49.576;10.990;2023-01-25T15:06:51;1.80;99.90
3330;DHT22;1677;49.576;10.990;2023-01-25T15:09:38;2.00;99.90
3330;DHT22;1677;49.576;10.990;2023-01-25T15:12:26;2.00;99.90
3330;DHT22;1677;49.576;10.990;2023-01-25T15:14:54;2.20;99.90
3330;DHT22;1677;49.576;10.990;2023-01-25T15:17:44;1.90;99.90
3330;DHT22;1677;49.576;10.990;2023-01-25T15:22:55;2.20;99.90
3330;DHT22;1677;49.576;10.990;2023-01-25T15:25:22;2.10;99.90
3330;DHT22;1677;49.576;10.990;2023-01-25T15:27:48;2.20;99.90
3330;DHT22;1677;49.576;10.990;2023-01-25T15:30:15;1.70;99.90
3330;DHT22;1677;49.576;10.990;2023-01-25T15:32:42;1.60;99.90
3330;DHT22;1677;49.576;10.990;2023-01-25T15:35:12;1.80;99.90
3330;DHT22;1677;49.576;10.990;2023-01-25T15:37:38;1.80;99.90
3330;DHT22;1677;49.576;10.990;2023-01-25T15:40:04;1.70;99.90
3330;DHT22;1677;49.576;10.990;2023-01-25T15:42:30;1.90;99.90
3330;DHT22;1677;49.576;10.990;2023-01-25T15:44:57;1.80;99.90
3330;DHT22;1677;49.576;10.990;2023-01-25T15:47:22;2.00;99.90
3330;DHT22;1677;49.576;10.990;2023-01-25T15:49:51;1.80;99.90
3330;DHT22;1677;49.576;10.990;2023-01-25T15:52:18;2.20;99.90
3330;DHT22;1677;49.576;10.990;2023-01-25T15:54:43;2.30;99.90
3330;DHT22;1677;49.576;10.990;2023-01-25T15:57:22;1.70;99.90
3330;DHT22;1677;49.576;10.990;2023-01-25T15:59:49;1.90;99.90
3330;DHT22;1677;49.576;10.990;2023-01-25T16:02:15;1.90;99.90
3330;DHT22;1677;49.576;10.990;2023-01-25T16:04:40;2.10;99.90
3330;DHT22;1677;49.576;10.990;2023-01-25T16:07:23;1.90;99.90
3330;DHT22;1677;49.576;10.990;2023-01-25T16:09:50;1.70;99.90
3330;DHT22;1677;49.576;10.990;2023-01-25T16:12:15;1.60;99.90
3330;DHT22;1677;49.576;10.990;2023-01-25T16:14:41;1.70;99.90
3330;DHT22;1677;49.576;10.990;2023-01-25T16:17:18;2.00;99.90
3330;DHT22;1677;49.576;10.990;2023-01-25T16:19:45;2.00;99.90
3330;DHT22;1677;49.576;10.990;2023-01-25T16:22:16;1.40;99.90
3330;DHT22;1677;49.576;10.990;2023-01-25T16:24:43;1.30;99.90
3330;DHT22;1677;49.576;10.990;2023-01-25T16:27:17;1.60;99.90
3330;DHT22;1677;49.576;10.990;2023-01-25T16:29:52;1.80;99.90
3330;DHT22;1677;49.576;10.990;2023-01-25T16:32:18;1.80;99.90
3330;DHT22;1677;49.576;10.990;2023-01-25T16:34:43;1.60;99.90
3330;DHT22;1677;49.576;10.990;2023-01-25T16:37:16;1.50;99.90
3330;DHT22;1677;49.576;10.990;2023-01-25T16:39:42;1.50;99.90
3330;DHT22;1677;49.576;10.990;2023-01-25T16:42:08;1.80;99.90
3330;DHT22;1677;49.576;10.990;2023-01-25T16:44:35;1.60;99.90
3330;DHT22;1677;49.576;10.990;2023-01-25T16:47:01;1.40;99.90
3330;DHT22;1677;49.576;10.990;2023-01-25T16:49:28;1.30;99.90
3330;DHT22;1677;49.576;10.990;2023-01-25T16:52:00;1.60;99.90
3330;DHT22;1677;49.576;10.990;2023-01-25T16:54:26;1.40;99.90
3330;DHT22;1677;49.576;10.990;2023-01-25T16:56:53;1.30;99.90
3330;DHT22;1677;49.576;10.990;2023-01-25T16:59:19;1.70;99.90
3330;DHT22;1677;49.576;10.990;2023-01-25T17:01:46;1.60;99.90
3330;DHT22;1677;49.576;10.990;2023-01-25T17:04:13;1.60;99.90
3330;DHT22;1677;49.576;10.990;2023-01-25T17:06:44;1.60;99.90
3330;DHT22;1677;49.576;10.990;2023-01-25T17:09:13;1.50;99.90
3330;DHT22;1677;49.576;10.990;2023-01-25T17:11:40;1.70;99.90
3330;DHT22;1677;49.576;10.990;2023-01-25T17:14:06;1.70;99.90
3330;DHT22;1677;49.576;10.990;2023-01-25T17:16:32;1.70;99.90
3330;DHT22;1677;49.576;10.990;2023-01-25T17:19:06;1.80;99.90
3330;DHT22;1677;49.576;10.990;2023-01-25T17:21:33;1.90;99.90
3330;DHT22;1677;49.576;10.990;2023-01-25T17:24:00;1.90;99.90
3330;DHT22;1677;49.576;10.990;2023-01-25T17:26:27;1.80;99.90
3330;DHT22;1677;49.576;10.990;2023-01-25T17:28:57;1.70;99.90
3330;DHT22;1677;49.576;10.990;2023-01-25T17:31:26;1.90;99.90
3330;DHT22;1677;49.576;10.990;2023-01-25T17:33:52;1.70;99.90
3330;DHT22;1677;49.576;10.990;2023-01-25T17:36:19;1.70;99.90
3330;DHT22;1677;49.576;10.990;2023-01-25T17:38:45;1.40;99.90
3330;DHT22;1677;49.576;10.990;2023-01-25T17:41:13;1.60;99.90
3330;DHT22;1677;49.576;10.990;2023-01-25T17:43:39;1.80;99.90
3330;DHT22;1677;49.576;10.990;2023-01-25T17:46:16;1.90;99.90
3330;DHT22;1677;49.576;10.990;2023-01-25T17:48:44;1.50;99.90
3330;DHT22;1677;49.576;10.990;2023-01-25T17:51:09;1.10;99.90
3330;DHT22;1677;49.576;10.990;2023-01-25T17:53:35;1.30;99.90
3330;DHT22;1677;49.576;10.990;2023-01-25T17:56:03;1.20;99.90
3330;DHT22;1677;49.576;10.990;2023-01-25T17:58:30;1.10;99.90